Eagle, Alaska
Current Conditions -  °F | °C
As of 10:53 AM on Saturday 25 Oct 2014 (Local Time) from PAEG Reporting Station
Overcast Overcast  
Wind Chill: -9°   Ceiling: 2000
Heat Index: -9°   Visibility: 10mi
Dew Point: -11°   Wind: 0mph
Humidity: 84%   Direction: NA
Pressure: 29.94"   Gusts: NA
Location:  64.78°N, 141.21°W
Report Text: PAEG 251853Z AUTO 00000KT 10SM OVC020 M09/M11 A2994 RMK AO2 SLP157 T10891111 TSNO
Loading
Personal Weather Stations






























Interactive Weather Map
Tropical Storm Tracking
New forecast layout! Learn more

10-Day Weather Forecast

Advertisements
Track Severe Weather on mobile